sensor_id;sensor_type;location;lat;lon;timestamp;pressure;altitude;pressure_sealevel;temperature;humidity
57114;BME280;42994;51.606;9.988;2024-03-02T00:00:49;98181.66;;;5.97;100.00
57114;BME280;42994;51.606;9.988;2024-03-02T00:03:16;98173.19;;;5.94;100.00
57114;BME280;42994;51.606;9.988;2024-03-02T00:05:43;98179.50;;;5.93;100.00
57114;BME280;42994;51.606;9.988;2024-03-02T00:08:12;98181.03;;;5.95;100.00
57114;BME280;42994;51.606;9.988;2024-03-02T00:10:42;98181.56;;;6.06;100.00
57114;BME280;42994;51.606;9.988;2024-03-02T00:13:12;98173.97;;;6.03;100.00
57114;BME280;42994;51.606;9.988;2024-03-02T00:15:45;98164.03;;;5.96;100.00
57114;BME280;42994;51.606;9.988;2024-03-02T00:18:14;98162.84;;;5.99;100.00
57114;BME280;42994;51.606;9.988;2024-03-02T00:20:41;98166.34;;;6.00;100.00
57114;BME280;42994;51.606;9.988;2024-03-02T00:23:09;98158.63;;;6.05;100.00
57114;BME280;42994;51.606;9.988;2024-03-02T00:25:38;98162.69;;;6.01;100.00
57114;BME280;42994;51.606;9.988;2024-03-02T00:28:13;98155.50;;;6.01;100.00
57114;BME280;42994;51.606;9.988;2024-03-02T00:30:55;98158.53;;;6.13;100.00
57114;BME280;42994;51.606;9.988;2024-03-02T00:33:22;98160.28;;;6.21;100.00
57114;BME280;42994;51.606;9.988;2024-03-02T00:35:50;98148.97;;;6.19;100.00
57114;BME280;42994;51.606;9.988;2024-03-02T00:38:16;98152.56;;;6.26;100.00
57114;BME280;42994;51.606;9.988;2024-03-02T00:40:44;98145.31;;;6.20;100.00
57114;BME280;42994;51.606;9.988;2024-03-02T00:46:17;98138.16;;;6.20;100.00
57114;BME280;42994;51.606;9.988;2024-03-02T00:49:02;98141.28;;;6.09;100.00
57114;BME280;42994;51.606;9.988;2024-03-02T00:51:31;98141.69;;;6.42;100.00
57114;BME280;42994;51.606;9.988;2024-03-02T00:54:00;98138.84;;;6.44;100.00
57114;BME280;42994;51.606;9.988;2024-03-02T00:56:29;98136.13;;;6.22;100.00
57114;BME280;42994;51.606;9.988;2024-03-02T00:58:56;98142.19;;;6.16;100.00
57114;BME280;42994;51.606;9.988;2024-03-02T01:01:24;98146.06;;;6.13;100.00
57114;BME280;42994;51.606;9.988;2024-03-02T01:03:52;98145.63;;;6.10;100.00
57114;BME280;42994;51.606;9.988;2024-03-02T01:06:19;98153.13;;;6.06;100.00
57114;BME280;42994;51.606;9.988;2024-03-02T01:08:47;98151.00;;;6.02;100.00
57114;BME280;42994;51.606;9.988;2024-03-02T01:11:16;98153.22;;;5.98;100.00
57114;BME280;42994;51.606;9.988;2024-03-02T01:13:44;98151.56;;;6.12;100.00
57114;BME280;42994;51.606;9.988;2024-03-02T01:16:11;98163.03;;;6.12;100.00
57114;BME280;42994;51.606;9.988;2024-03-02T01:18:39;98159.44;;;6.20;100.00
57114;BME280;42994;51.606;9.988;2024-03-02T01:21:06;98152.75;;;6.09;100.00
57114;BME280;42994;51.606;9.988;2024-03-02T01:23:33;98144.41;;;5.97;100.00
57114;BME280;42994;51.606;9.988;2024-03-02T01:26:00;98145.16;;;6.06;100.00
57114;BME280;42994;51.606;9.988;2024-03-02T01:28:27;98153.50;;;6.03;100.00
57114;BME280;42994;51.606;9.988;2024-03-02T01:30:53;98146.03;;;5.99;100.00
57114;BME280;42994;51.606;9.988;2024-03-02T01:33:21;98148.22;;;5.95;100.00
57114;BME280;42994;51.606;9.988;2024-03-02T01:35:49;98147.41;;;5.94;100.00
57114;BME280;42994;51.606;9.988;2024-03-02T01:38:16;98147.56;;;5.93;100.00
57114;BME280;42994;51.606;9.988;2024-03-02T01:40:43;98150.00;;;6.03;100.00
57114;BME280;42994;51.606;9.988;2024-03-02T01:43:11;98149.84;;;6.04;100.00
57114;BME280;42994;51.606;9.988;2024-03-02T01:45:38;98162.47;;;6.02;100.00
57114;BME280;42994;51.606;9.988;2024-03-02T01:48:06;98155.22;;;5.96;100.00
57114;BME280;42994;51.606;9.988;2024-03-02T01:50:34;98153.09;;;5.91;100.00
57114;BME280;42994;51.606;9.988;2024-03-02T01:53:03;98150.63;;;5.90;100.00
57114;BME280;42994;51.606;9.988;2024-03-02T01:55:30;98149.13;;;5.87;100.00
57114;BME280;42994;51.606;9.988;2024-03-02T01:57:57;98150.16;;;5.86;100.00
57114;BME280;42994;51.606;9.988;2024-03-02T02:00:24;98147.84;;;5.83;100.00
57114;BME280;42994;51.606;9.988;2024-03-02T02:02:51;98148.22;;;5.80;100.00
57114;BME280;42994;51.606;9.988;2024-03-02T02:05:18;98150.22;;;5.78;100.00
57114;BME280;42994;51.606;9.988;2024-03-02T02:07:47;98148.59;;;5.77;100.00
57114;BME280;42994;51.606;9.988;2024-03-02T02:10:15;98141.78;;;5.74;100.00
57114;BME280;42994;51.606;9.988;2024-03-02T02:12:42;98141.78;;;5.74;100.00
57114;BME280;42994;51.606;9.988;2024-03-02T02:15:22;98142.63;;;5.75;100.00
57114;BME280;42994;51.606;9.988;2024-03-02T02:17:49;98137.50;;;5.73;100.00
57114;BME280;42994;51.606;9.988;2024-03-02T02:20:16;98141.97;;;5.73;100.00
57114;BME280;42994;51.606;9.988;2024-03-02T02:22:59;98134.66;;;5.75;100.00
57114;BME280;42994;51.606;9.988;2024-03-02T02:25:26;98140.81;;;5.75;100.00
57114;BME280;42994;51.606;9.988;2024-03-02T02:27:54;98132.00;;;5.75;100.00
57114;BME280;42994;51.606;9.988;2024-03-02T02:30:23;98135.31;;;5.77;100.00
57114;BME280;42994;51.606;9.988;2024-03-02T02:32:50;98135.47;;;5.75;100.00
57114;BME280;42994;51.606;9.988;2024-03-02T02:35:16;98143.47;;;5.75;100.00
57114;BME280;42994;51.606;9.988;2024-03-02T02:37:44;98140.81;;;5.75;100.00
57114;BME280;42994;51.606;9.988;2024-03-02T02:40:14;98141.97;;;5.73;100.00
57114;BME280;42994;51.606;9.988;2024-03-02T02:42:41;98143.34;;;5.69;100.00
57114;BME280;42994;51.606;9.988;2024-03-02T02:45:08;98147.56;;;5.63;100.00
57114;BME280;42994;51.606;9.988;2024-03-02T02:47:36;98143.53;;;5.67;100.00
57114;BME280;42994;51.606;9.988;2024-03-02T02:50:03;98157.09;;;5.72;100.00
57114;BME280;42994;51.606;9.988;2024-03-02T02:52:34;98144.00;;;5.71;100.00
57114;BME280;42994;51.606;9.988;2024-03-02T02:55:03;98146.13;;;5.75;100.00
57114;BME280;42994;51.606;9.988;2024-03-02T02:57:32;98144.91;;;5.78;100.00
57114;BME280;42994;51.606;9.988;2024-03-02T03:00:02;98141.34;;;5.71;100.00
57114;BME280;42994;51.606;9.988;2024-03-02T03:02:36;98140.88;;;5.67;100.00
57114;BME280;42994;51.606;9.988;2024-03-02T03:05:04;98137.75;;;5.64;100.00
57114;BME280;42994;51.606;9.988;2024-03-02T03:07:31;98133.28;;;5.64;100.00
57114;BME280;42994;51.606;9.988;2024-03-02T03:09:58;98135.47;;;5.61;100.00
57114;BME280;42994;51.606;9.988;2024-03-02T03:12:25;98135.47;;;5.61;100.00
57114;BME280;42994;51.606;9.988;2024-03-02T03:14:53;98141.59;;;5.61;100.00
57114;BME280;42994;51.606;9.988;2024-03-02T03:17:21;98143.44;;;5.61;100.00
57114;BME280;42994;51.606;9.988;2024-03-02T03:19:48;98146.38;;;5.66;100.00
57114;BME280;42994;51.606;9.988;2024-03-02T03:22:15;98153.53;;;5.65;100.00
57114;BME280;42994;51.606;9.988;2024-03-02T03:24:42;98151.59;;;5.59;100.00
57114;BME280;42994;51.606;9.988;2024-03-02T03:27:09;98149.94;;;5.58;100.00
57114;BME280;42994;51.606;9.988;2024-03-02T03:29:36;98158.66;;;5.52;100.00
57114;BME280;42994;51.606;9.988;2024-03-02T03:32:05;98163.97;;;5.52;100.00
57114;BME280;42994;51.606;9.988;2024-03-02T03:34:33;98160.66;;;5.50;100.00
57114;BME280;42994;51.606;9.988;2024-03-02T03:37:00;98151.84;;;5.49;100.00
57114;BME280;42994;51.606;9.988;2024-03-02T03:39:26;98158.00;;;5.50;100.00
57114;BME280;42994;51.606;9.988;2024-03-02T03:41:53;98159.16;;;5.47;100.00
57114;BME280;42994;51.606;9.988;2024-03-02T03:44:20;98152.22;;;5.46;100.00
57114;BME280;42994;51.606;9.988;2024-03-02T03:46:47;98158.59;;;5.37;100.00
57114;BME280;42994;51.606;9.988;2024-03-02T03:49:16;98165.25;;;5.33;100.00
57114;BME280;42994;51.606;9.988;2024-03-02T03:51:43;98157.91;;;5.20;100.00
57114;BME280;42994;51.606;9.988;2024-03-02T03:54:10;98169.59;;;5.11;100.00
57114;BME280;42994;51.606;9.988;2024-03-02T03:56:37;98164.22;;;5.19;100.00
57114;BME280;42994;51.606;9.988;2024-03-02T03:59:04;98163.69;;;5.24;100.00
57114;BME280;42994;51.606;9.988;2024-03-02T04:01:31;98165.41;;;5.16;100.00
57114;BME280;42994;51.606;9.988;2024-03-02T04:03:59;98167.22;;;5.16;100.00
57114;BME280;42994;51.606;9.988;2024-03-02T04:06:28;98178.59;;;5.10;100.00
57114;BME280;42994;51.606;9.988;2024-03-02T04:08:56;98171.44;;;5.10;100.00
57114;BME280;42994;51.606;9.988;2024-03-02T04:11:22;98174.81;;;5.04;100.00
57114;BME280;42994;51.606;9.988;2024-03-02T04:13:49;98186.06;;;5.06;100.00
57114;BME280;42994;51.606;9.988;2024-03-02T04:16:16;98181.41;;;5.08;100.00
57114;BME280;42994;51.606;9.988;2024-03-02T04:18:44;98198.06;;;5.02;100.00
57114;BME280;42994;51.606;9.988;2024-03-02T04:21:11;98192.75;;;5.02;100.00
57114;BME280;42994;51.606;9.988;2024-03-02T04:23:39;98189.06;;;5.03;100.00
57114;BME280;42994;51.606;9.988;2024-03-02T04:26:06;98190.75;;;5.04;100.00
57114;BME280;42994;51.606;9.988;2024-03-02T04:28:33;98185.47;;;4.96;100.00
57114;BME280;42994;51.606;9.988;2024-03-02T04:31:00;98200.03;;;5.00;100.00
57114;BME280;42994;51.606;9.988;2024-03-02T04:33:27;98194.72;;;5.00;100.00
57114;BME280;42994;51.606;9.988;2024-03-02T04:35:53;98193.13;;;4.91;100.00
57114;BME280;42994;51.606;9.988;2024-03-02T04:38:20;98192.19;;;4.84;100.00
57114;BME280;42994;51.606;9.988;2024-03-02T04:40:48;98194.50;;;4.87;100.00
57114;BME280;42994;51.606;9.988;2024-03-02T04:43:15;98189.75;;;4.74;100.00
57114;BME280;42994;51.606;9.988;2024-03-02T04:45:42;98197.41;;;4.69;100.00
57114;BME280;42994;51.606;9.988;2024-03-02T04:48:09;98199.06;;;4.70;100.00
57114;BME280;42994;51.606;9.988;2024-03-02T04:50:35;98193.59;;;4.71;100.00
57114;BME280;42994;51.606;9.988;2024-03-02T04:53:02;98201.41;;;4.65;100.00
57114;BME280;42994;51.606;9.988;2024-03-02T04:55:29;98205.63;;;4.51;100.00
57114;BME280;42994;51.606;9.988;2024-03-02T04:58:23;98213.66;;;4.34;100.00
57114;BME280;42994;51.606;9.988;2024-03-02T05:00:50;98218.47;;;4.31;100.00
57114;BME280;42994;51.606;9.988;2024-03-02T05:03:16;98222.41;;;4.43;100.00
57114;BME280;42994;51.606;9.988;2024-03-02T05:05:43;98219.63;;;4.36;100.00
57114;BME280;42994;51.606;9.988;2024-03-02T05:08:10;98216.91;;;3.89;100.00
57114;BME280;42994;51.606;9.988;2024-03-02T05:10:37;98214.75;;;4.00;100.00
57114;BME280;42994;51.606;9.988;2024-03-02T05:13:06;98218.75;;;3.96;100.00
57114;BME280;42994;51.606;9.988;2024-03-02T05:15:33;98230.69;;;3.84;100.00
57114;BME280;42994;51.606;9.988;2024-03-02T05:18:00;98236.97;;;3.91;100.00
57114;BME280;42994;51.606;9.988;2024-03-02T05:20:28;98231.31;;;4.02;100.00
57114;BME280;42994;51.606;9.988;2024-03-02T05:22:54;98216.75;;;3.98;100.00
57114;BME280;42994;51.606;9.988;2024-03-02T05:25:21;98218.75;;;3.96;100.00
57114;BME280;42994;51.606;9.988;2024-03-02T05:27:48;98209.47;;;3.92;100.00
57114;BME280;42994;51.606;9.988;2024-03-02T05:30:15;98205.69;;;3.70;100.00
57114;BME280;42994;51.606;9.988;2024-03-02T05:32:43;98211.81;;;3.79;100.00
57114;BME280;42994;51.606;9.988;2024-03-02T05:35:10;98199.72;;;3.68;100.00
57114;BME280;42994;51.606;9.988;2024-03-02T05:37:38;98211.00;;;3.62;100.00
57114;BME280;42994;51.606;9.988;2024-03-02T05:40:06;98210.69;;;3.57;100.00
57114;BME280;42994;51.606;9.988;2024-03-02T05:42:35;98212.31;;;3.17;100.00
57114;BME280;42994;51.606;9.988;2024-03-02T05:45:03;98222.09;;;3.16;100.00
57114;BME280;42994;51.606;9.988;2024-03-02T05:47:30;98224.91;;;3.31;100.00
57114;BME280;42994;51.606;9.988;2024-03-02T05:49:59;98223.59;;;3.43;100.00
57114;BME280;42994;51.606;9.988;2024-03-02T05:52:26;98227.06;;;3.52;100.00
57114;BME280;42994;51.606;9.988;2024-03-02T05:54:53;98220.97;;;3.43;100.00
57114;BME280;42994;51.606;9.988;2024-03-02T05:57:19;98215.00;;;3.41;100.00
57114;BME280;42994;51.606;9.988;2024-03-02T05:59:57;98216.78;;;3.00;100.00
57114;BME280;42994;51.606;9.988;2024-03-02T06:02:24;98223.91;;;3.24;100.00
57114;BME280;42994;51.606;9.988;2024-03-02T06:04:52;98225.75;;;3.23;100.00
57114;BME280;42994;51.606;9.988;2024-03-02T06:07:20;98228.03;;;3.26;100.00
57114;BME280;42994;51.606;9.988;2024-03-02T06:09:47;98229.19;;;3.16;100.00
57114;BME280;42994;51.606;9.988;2024-03-02T06:12:18;98232.31;;;3.03;100.00
57114;BME280;42994;51.606;9.988;2024-03-02T06:14:45;98238.59;;;2.94;100.00
57114;BME280;42994;51.606;9.988;2024-03-02T06:17:12;98244.56;;;2.96;100.00
57114;BME280;42994;51.606;9.988;2024-03-02T06:19:39;98257.81;;;2.96;100.00
57114;BME280;42994;51.606;9.988;2024-03-02T06:22:06;98260.28;;;2.97;100.00
57114;BME280;42994;51.606;9.988;2024-03-02T06:24:37;98271.06;;;3.04;100.00
57114;BME280;42994;51.606;9.988;2024-03-02T06:27:04;98277.00;;;2.98;100.00
57114;BME280;42994;51.606;9.988;2024-03-02T06:29:32;98288.41;;;2.98;100.00
57114;BME280;42994;51.606;9.988;2024-03-02T06:31:59;98283.97;;;3.07;100.00
57114;BME280;42994;51.606;9.988;2024-03-02T06:34:26;98294.38;;;3.00;100.00
57114;BME280;42994;51.606;9.988;2024-03-02T06:36:52;98309.44;;;3.08;100.00
57114;BME280;42994;51.606;9.988;2024-03-02T06:39:19;98313.59;;;3.11;100.00
57114;BME280;42994;51.606;9.988;2024-03-02T06:41:47;98315.41;;;3.10;100.00
57114;BME280;42994;51.606;9.988;2024-03-02T06:44:14;98328.03;;;3.24;100.00
57114;BME280;42994;51.606;9.988;2024-03-02T06:46:40;98336.31;;;3.30;100.00
57114;BME280;42994;51.606;9.988;2024-03-02T06:49:07;98334.88;;;3.43;100.00
57114;BME280;42994;51.606;9.988;2024-03-02T06:51:35;98352.66;;;3.84;100.00
57114;BME280;42994;51.606;9.988;2024-03-02T06:54:02;98360.25;;;3.79;100.00
57114;BME280;42994;51.606;9.988;2024-03-02T06:56:29;98366.06;;;3.82;100.00
57114;BME280;42994;51.606;9.988;2024-03-02T06:58:59;98371.88;;;3.78;100.00
57114;BME280;42994;51.606;9.988;2024-03-02T07:01:26;98366.56;;;3.86;100.00
57114;BME280;42994;51.606;9.988;2024-03-02T07:03:53;98375.50;;;4.01;100.00
57114;BME280;42994;51.606;9.988;2024-03-02T07:06:20;98395.25;;;4.15;100.00
57114;BME280;42994;51.606;9.988;2024-03-02T07:08:47;98404.19;;;4.55;100.00
57114;BME280;42994;51.606;9.988;2024-03-02T07:11:13;98406.00;;;4.47;100.00
57114;BME280;42994;51.606;9.988;2024-03-02T07:13:40;98412.28;;;4.70;100.00
57114;BME280;42994;51.606;9.988;2024-03-02T07:16:09;98403.69;;;4.52;100.00
57114;BME280;42994;51.606;9.988;2024-03-02T07:18:55;98403.03;;;4.41;100.00
57114;BME280;42994;51.606;9.988;2024-03-02T07:21:22;98418.13;;;4.41;100.00
57114;BME280;42994;51.606;9.988;2024-03-02T07:23:49;98409.97;;;4.34;100.00
57114;BME280;42994;51.606;9.988;2024-03-02T07:26:17;98413.50;;;4.35;100.00
57114;BME280;42994;51.606;9.988;2024-03-02T07:28:45;98416.47;;;4.40;100.00
57114;BME280;42994;51.606;9.988;2024-03-02T07:31:14;98425.91;;;4.42;100.00
57114;BME280;42994;51.606;9.988;2024-03-02T07:33:43;98430.22;;;4.60;100.00
57114;BME280;42994;51.606;9.988;2024-03-02T07:36:11;98437.00;;;4.54;100.00
57114;BME280;42994;51.606;9.988;2024-03-02T07:38:38;98436.03;;;4.55;100.00
57114;BME280;42994;51.606;9.988;2024-03-02T07:41:06;98438.84;;;4.62;100.00
57114;BME280;42994;51.606;9.988;2024-03-02T07:43:33;98443.31;;;4.70;100.00
57114;BME280;42994;51.606;9.988;2024-03-02T07:45:59;98445.31;;;4.68;100.00
57114;BME280;42994;51.606;9.988;2024-03-02T07:48:29;98445.66;;;4.73;100.00
57114;BME280;42994;51.606;9.988;2024-03-02T07:50:56;98451.59;;;4.83;100.00
57114;BME280;42994;51.606;9.988;2024-03-02T07:53:23;98462.69;;;4.87;100.00
57114;BME280;42994;51.606;9.988;2024-03-02T07:55:50;98461.03;;;4.94;100.00
57114;BME280;42994;51.606;9.988;2024-03-02T07:58:17;98461.03;;;5.02;100.00
57114;BME280;42994;51.606;9.988;2024-03-02T08:00:45;98471.25;;;5.22;100.00
57114;BME280;42994;51.606;9.988;2024-03-02T08:03:12;98480.72;;;5.16;100.00
57114;BME280;42994;51.606;9.988;2024-03-02T08:05:41;98482.53;;;5.32;100.00
57114;BME280;42994;51.606;9.988;2024-03-02T08:08:08;98475.69;;;5.29;100.00
57114;BME280;42994;51.606;9.988;2024-03-02T08:10:35;98476.34;;;5.39;100.00
57114;BME280;42994;51.606;9.988;2024-03-02T08:13:03;98474.00;;;5.45;100.00
57114;BME280;42994;51.606;9.988;2024-03-02T08:15:30;98480.72;;;5.64;100.00
57114;BME280;42994;51.606;9.988;2024-03-02T08:17:57;98475.25;;;5.65;100.00
57114;BME280;42994;51.606;9.988;2024-03-02T08:20:24;98473.78;;;5.63;100.00
57114;BME280;42994;51.606;9.988;2024-03-02T08:22:53;98474.56;;;5.71;100.00
57114;BME280;42994;51.606;9.988;2024-03-02T08:25:21;98476.44;;;5.94;100.00
57114;BME280;42994;51.606;9.988;2024-03-02T08:27:48;98468.97;;;5.97;100.00
57114;BME280;42994;51.606;9.988;2024-03-02T08:30:14;98460.41;;;6.10;100.00
57114;BME280;42994;51.606;9.988;2024-03-02T08:32:42;98447.97;;;6.03;100.00
57114;BME280;42994;51.606;9.988;2024-03-02T08:35:08;98433.19;;;6.23;100.00
57114;BME280;42994;51.606;9.988;2024-03-02T08:37:37;98424.00;;;6.26;100.00
57114;BME280;42994;51.606;9.988;2024-03-02T08:40:08;98411.00;;;6.31;100.00
57114;BME280;42994;51.606;9.988;2024-03-02T08:42:36;98400.22;;;6.47;100.00
57114;BME280;42994;51.606;9.988;2024-03-02T08:45:03;98385.63;;;6.43;100.00
57114;BME280;42994;51.606;9.988;2024-03-02T08:47:31;98371.88;;;6.54;100.00
57114;BME280;42994;51.606;9.988;2024-03-02T08:49:58;98369.22;;;6.69;100.00
57114;BME280;42994;51.606;9.988;2024-03-02T08:52:24;98354.44;;;6.82;100.00
57114;BME280;42994;51.606;9.988;2024-03-02T08:54:51;98326.88;;;6.74;100.00
57114;BME280;42994;51.606;9.988;2024-03-02T08:57:19;98322.81;;;6.79;100.00
57114;BME280;42994;51.606;9.988;2024-03-02T08:59:46;98326.78;;;6.98;100.00
57114;BME280;42994;51.606;9.988;2024-03-02T09:02:13;98307.84;;;6.92;100.00
57114;BME280;42994;51.606;9.988;2024-03-02T09:04:40;98292.78;;;7.00;100.00
57114;BME280;42994;51.606;9.988;2024-03-02T09:07:07;98296.53;;;7.42;100.00
57114;BME280;42994;51.606;9.988;2024-03-02T09:09:34;98267.72;;;7.52;100.00
57114;BME280;42994;51.606;9.988;2024-03-02T09:12:01;98241.19;;;7.44;100.00
57114;BME280;42994;51.606;9.988;2024-03-02T09:14:29;98236.28;;;7.47;100.00
57114;BME280;42994;51.606;9.988;2024-03-02T09:16:56;98219.06;;;7.50;100.00
57114;BME280;42994;51.606;9.988;2024-03-02T09:19:22;98215.22;;;7.53;100.00
57114;BME280;42994;51.606;9.988;2024-03-02T09:21:49;98206.06;;;7.62;100.00
57114;BME280;42994;51.606;9.988;2024-03-02T09:24:16;98204.03;;;7.64;100.00
57114;BME280;42994;51.606;9.988;2024-03-02T09:26:43;98193.44;;;7.77;100.00
57114;BME280;42994;51.606;9.988;2024-03-02T09:29:09;98188.16;;;7.84;100.00
57114;BME280;42994;51.606;9.988;2024-03-02T09:31:40;98175.22;;;7.81;100.00
57114;BME280;42994;51.606;9.988;2024-03-02T09:34:07;98177.75;;;7.89;100.00
57114;BME280;42994;51.606;9.988;2024-03-02T09:36:34;98158.28;;;7.95;100.00
57114;BME280;42994;51.606;9.988;2024-03-02T09:39:02;98163.03;;;8.00;100.00
57114;BME280;42994;51.606;9.988;2024-03-02T09:41:29;98151.81;;;8.11;100.00
57114;BME280;42994;51.606;9.988;2024-03-02T09:43:56;98140.47;;;8.02;100.00
57114;BME280;42994;51.606;9.988;2024-03-02T09:46:23;98138.22;;;8.06;100.00
57114;BME280;42994;51.606;9.988;2024-03-02T09:48:51;98138.84;;;8.08;100.00
57114;BME280;42994;51.606;9.988;2024-03-02T09:51:19;98134.22;;;8.30;100.00
57114;BME280;42994;51.606;9.988;2024-03-02T09:53:47;98128.50;;;8.33;100.00
57114;BME280;42994;51.606;9.988;2024-03-02T09:56:15;98127.25;;;8.36;100.00
57114;BME280;42994;51.606;9.988;2024-03-02T09:58:43;98136.31;;;8.35;100.00
57114;BME280;42994;51.606;9.988;2024-03-02T10:01:10;98127.06;;;8.31;100.00
57114;BME280;42994;51.606;9.988;2024-03-02T10:03:37;98115.41;;;8.45;100.00
57114;BME280;42994;51.606;9.988;2024-03-02T10:06:23;98124.94;;;8.54;100.00
57114;BME280;42994;51.606;9.988;2024-03-02T10:08:50;98115.84;;;8.49;100.00
57114;BME280;42994;51.606;9.988;2024-03-02T10:11:35;98108.91;;;8.61;100.00
57114;BME280;42994;51.606;9.988;2024-03-02T10:14:05;98114.28;;;8.68;100.00
57114;BME280;42994;51.606;9.988;2024-03-02T10:16:35;98101.38;;;8.91;100.00
57114;BME280;42994;51.606;9.988;2024-03-02T10:19:18;98096.25;;;8.96;100.00
57114;BME280;42994;51.606;9.988;2024-03-02T10:21:47;98111.03;;;8.92;100.00
57114;BME280;42994;51.606;9.988;2024-03-02T10:24:15;98100.13;;;9.07;100.00
57114;BME280;42994;51.606;9.988;2024-03-02T10:26:41;98096.88;;;9.12;100.00
57114;BME280;42994;51.606;9.988;2024-03-02T10:29:08;98100.16;;;9.27;100.00
57114;BME280;42994;51.606;9.988;2024-03-02T10:31:36;98095.03;;;9.26;100.00
57114;BME280;42994;51.606;9.988;2024-03-02T10:34:05;98110.25;;;9.32;100.00
57114;BME280;42994;51.606;9.988;2024-03-02T10:36:32;98112.28;;;9.56;100.00
57114;BME280;42994;51.606;9.988;2024-03-02T10:39:03;98104.88;;;9.45;100.00
57114;BME280;42994;51.606;9.988;2024-03-02T10:41:32;98091.91;;;9.55;100.00
57114;BME280;42994;51.606;9.988;2024-03-02T10:43:59;98086.34;;;9.70;100.00
57114;BME280;42994;51.606;9.988;2024-03-02T10:46:28;98082.84;;;9.70;100.00
57114;BME280;42994;51.606;9.988;2024-03-02T10:48:56;98079.13;;;9.77;100.00
57114;BME280;42994;51.606;9.988;2024-03-02T10:51:24;98080.38;;;9.75;100.00
57114;BME280;42994;51.606;9.988;2024-03-02T10:53:51;98077.56;;;10.15;100.00
57114;BME280;42994;51.606;9.988;2024-03-02T10:56:22;98074.31;;;9.99;100.00
57114;BME280;42994;51.606;9.988;2024-03-02T10:58:57;98082.56;;;9.98;100.00
57114;BME280;42994;51.606;9.988;2024-03-02T11:01:29;98068.97;;;10.06;100.00
57114;BME280;42994;51.606;9.988;2024-03-02T11:03:56;98057.19;;;10.14;100.00
57114;BME280;42994;51.606;9.988;2024-03-02T11:06:23;98055.50;;;10.19;100.00
57114;BME280;42994;51.606;9.988;2024-03-02T11:08:53;98057.16;;;10.20;100.00
57114;BME280;42994;51.606;9.988;2024-03-02T11:11:27;98051.34;;;10.30;100.00
57114;BME280;42994;51.606;9.988;2024-03-02T11:13:57;98058.97;;;10.27;100.00
57114;BME280;42994;51.606;9.988;2024-03-02T11:16:31;98050.16;;;10.19;100.00
57114;BME280;42994;51.606;9.988;2024-03-02T11:19:02;98059.59;;;10.22;100.00
57114;BME280;42994;51.606;9.988;2024-03-02T11:21:29;98057.94;;;10.28;100.00
57114;BME280;42994;51.606;9.988;2024-03-02T11:23:58;98062.25;;;10.29;100.00
57114;BME280;42994;51.606;9.988;2024-03-02T11:26:29;98063.91;;;10.36;100.00
57114;BME280;42994;51.606;9.988;2024-03-02T11:29:04;98062.88;;;10.37;100.00
57114;BME280;42994;51.606;9.988;2024-03-02T11:31:57;98052.97;;;10.38;100.00
57114;BME280;42994;51.606;9.988;2024-03-02T11:34:29;98060.50;;;10.54;100.00
57114;BME280;42994;51.606;9.988;2024-03-02T11:36:56;98054.72;;;10.57;100.00
57114;BME280;42994;51.606;9.988;2024-03-02T11:39:24;98067.44;;;10.69;100.00
57114;BME280;42994;51.606;9.988;2024-03-02T11:41:53;98048.97;;;10.54;100.00
57114;BME280;42994;51.606;9.988;2024-03-02T11:44:20;98048.94;;;10.61;100.00
57114;BME280;42994;51.606;9.988;2024-03-02T11:46:51;98053.84;;;10.64;100.00
57114;BME280;42994;51.606;9.988;2024-03-02T11:49:36;98047.19;;;10.73;100.00
57114;BME280;42994;51.606;9.988;2024-03-02T11:52:05;98041.31;;;10.64;100.00
57114;BME280;42994;51.606;9.988;2024-03-02T11:54:33;98038.13;;;10.74;100.00
57114;BME280;42994;51.606;9.988;2024-03-02T11:57:03;98046.16;;;10.81;100.00
57114;BME280;42994;51.606;9.988;2024-03-02T11:59:30;98034.84;;;10.72;100.00
57114;BME280;42994;51.606;9.988;2024-03-02T12:01:59;98034.31;;;10.88;100.00
57114;BME280;42994;51.606;9.988;2024-03-02T12:04:26;98028.78;;;10.83;100.00
57114;BME280;42994;51.606;9.988;2024-03-02T12:06:57;98022.22;;;10.79;100.00
57114;BME280;42994;51.606;9.988;2024-03-02T12:09:26;98026.16;;;10.76;100.00
57114;BME280;42994;51.606;9.988;2024-03-02T12:12:05;98014.72;;;10.88;100.00
57114;BME280;42994;51.606;9.988;2024-03-02T12:14:34;98021.09;;;10.93;100.00
57114;BME280;42994;51.606;9.988;2024-03-02T12:17:01;98006.41;;;10.96;100.00
57114;BME280;42994;51.606;9.988;2024-03-02T12:19:28;98007.69;;;10.93;100.00
57114;BME280;42994;51.606;9.988;2024-03-02T12:21:55;98010.13;;;10.95;100.00
57114;BME280;42994;51.606;9.988;2024-03-02T12:24:23;98006.41;;;10.96;100.00
57114;BME280;42994;51.606;9.988;2024-03-02T12:26:50;98006.97;;;11.05;100.00
57114;BME280;42994;51.606;9.988;2024-03-02T12:29:20;97996.94;;;11.19;100.00
57114;BME280;42994;51.606;9.988;2024-03-02T12:31:48;97999.34;;;11.27;100.00
57114;BME280;42994;51.606;9.988;2024-03-02T12:34:16;98004.78;;;11.39;100.00
57114;BME280;42994;51.606;9.988;2024-03-02T12:36:44;97990.78;;;11.37;100.00
57114;BME280;42994;51.606;9.988;2024-03-02T12:39:13;97998.81;;;11.37;100.00
57114;BME280;42994;51.606;9.988;2024-03-02T12:41:41;97999.69;;;11.56;100.00
57114;BME280;42994;51.606;9.988;2024-03-02T12:44:08;97989.97;;;11.73;100.00
57114;BME280;42994;51.606;9.988;2024-03-02T12:46:37;97984.09;;;11.64;100.00
57114;BME280;42994;51.606;9.988;2024-03-02T12:49:09;97978.72;;;11.64;100.00
57114;BME280;42994;51.606;9.988;2024-03-02T12:51:38;97973.66;;;11.56;100.00
57114;BME280;42994;51.606;9.988;2024-03-02T12:54:06;97980.19;;;11.79;100.00
57114;BME280;42994;51.606;9.988;2024-03-02T12:56:33;97973.34;;;11.64;100.00
57114;BME280;42994;51.606;9.988;2024-03-02T12:59:00;97975.91;;;11.59;100.00
57114;BME280;42994;51.606;9.988;2024-03-02T13:01:38;97968.28;;;11.56;100.00
57114;BME280;42994;51.606;9.988;2024-03-02T13:10:00;97958.56;;;11.73;100.00
57114;BME280;42994;51.606;9.988;2024-03-02T13:12:30;97945.41;;;11.72;100.00